Time;durP1;ratioP1;P1;durP2;ratioP2;P2;SDS_P1;SDS_P2;PMS_P1;PMS_P2;Temp;Humidity;BMP_temperature;BMP_pressure;BME280_temperature;BME280_humidity;BME280_pressure;Samples;Min_cycle;Max_cycle;Signal;HPM_P1;HPM_P2
2023/08/30 00:01:00;;;;;;;5.32;4.40;;;;;;;19.08;57.54;99090.53;5031499;28;20148;-82
2023/08/30 00:03:27;;;;;;;5.78;4.60;;;;;;;19.07;57.31;99086.19;5031480;28;20076;-82
2023/08/30 00:05:53;;;;;;;9.35;4.95;;;;;;;19.08;57.72;99090.53;5031477;28;20060;-82
2023/08/30 00:08:20;;;;;;;5.10;3.95;;;;;;;19.09;57.23;99092.19;5031540;28;20196;-81
2023/08/30 00:10:47;;;;;;;6.20;4.22;;;;;;;19.10;57.71;99088.50;5031403;28;20077;-84
2023/08/30 00:13:15;;;;;;;10.35;4.47;;;;;;;19.10;57.88;99085.03;5031366;28;20597;-81
2023/08/30 00:15:41;;;;;;;6.95;5.07;;;;;;;19.10;57.64;99085.84;5031393;28;20527;-81
2023/08/30 00:18:08;;;;;;;5.38;4.65;;;;;;;19.09;57.28;99080.66;5031196;28;20077;-82
2023/08/30 00:20:35;;;;;;;6.88;4.25;;;;;;;19.09;57.39;99081.50;5013690;28;20073;-81
2023/08/30 00:23:01;;;;;;;4.43;3.97;;;;;;;19.08;57.43;99077.19;5030812;28;20053;-82
2023/08/30 00:25:28;;;;;;;6.80;4.47;;;;;;;19.07;57.19;99086.19;5031228;28;20100;-83
2023/08/30 00:27:54;;;;;;;6.20;4.90;;;;;;;19.04;57.39;99081.13;5025076;28;20048;-81
2023/08/30 00:30:21;;;;;;;5.50;4.20;;;;;;;19.02;57.42;99073.28;5029258;28;20104;-81
2023/08/30 00:32:47;;;;;;;6.00;4.93;;;;;;;19.00;57.16;99075.25;5067611;22;20059;-78
2023/08/30 00:35:14;;;;;;;9.20;4.85;;;;;;;18.98;57.09;99079.94;5041962;28;20416;-77
2023/08/30 00:37:40;;;;;;;6.25;4.35;;;;;;;18.97;57.46;99082.75;5051693;28;20080;-76
2023/08/30 00:40:07;;;;;;;6.05;4.40;;;;;;;18.94;57.28;99072.41;5051223;28;20572;-77
2023/08/30 00:42:33;;;;;;;6.65;4.70;;;;;;;18.92;57.62;99075.25;5051476;28;20094;-75
2023/08/30 00:45:00;;;;;;;5.30;4.80;;;;;;;18.88;57.58;99066.72;5044525;28;20536;-77
2023/08/30 00:47:27;;;;;;;4.70;4.28;;;;;;;18.85;57.46;99075.03;5050282;28;20048;-76
2023/08/30 00:49:53;;;;;;;6.53;4.38;;;;;;;18.82;57.37;99075.34;5033604;28;20045;-75
2023/08/30 00:52:20;;;;;;;5.38;4.80;;;;;;;18.79;57.54;99074.81;5053011;28;20138;-76
2023/08/30 00:54:47;;;;;;;6.13;4.72;;;;;;;18.74;57.32;99065.50;5058057;28;20048;-78
2023/08/30 00:57:13;;;;;;;7.88;5.13;;;;;;;18.72;57.30;99069.28;5059701;28;20049;-76
2023/08/30 00:59:40;;;;;;;5.32;4.60;;;;;;;18.67;57.36;99063.59;5051212;28;20124;-75
2023/08/30 01:02:07;;;;;;;5.95;4.70;;;;;;;18.64;57.46;99062.06;5051101;28;20049;-75
2023/08/30 01:04:33;;;;;;;6.63;4.68;;;;;;;18.59;57.48;99059.91;5051018;28;20053;-79
2023/08/30 01:07:00;;;;;;;7.63;5.30;;;;;;;18.56;57.66;99065.53;5033757;28;20489;-76
2023/08/30 01:09:27;;;;;;;5.85;5.22;;;;;;;18.50;57.62;99060.81;5053368;28;20045;-75
2023/08/30 01:12:12;;;;;;;8.27;5.47;;;;;;;18.46;57.38;99054.97;5048731;28;20604;-77
2023/08/30 01:15:15;;;;;;;5.82;4.72;;;;;;;18.36;58.01;99052.41;5043139;28;20051;-78
2023/08/30 01:17:45;;;;;;;7.57;5.75;;;;;;;18.35;57.56;99048.06;5043529;28;20124;-76
2023/08/30 01:20:16;;;;;;;6.57;5.32;;;;;;;18.30;57.77;99046.84;5059032;28;20048;-75
2023/08/30 01:23:01;;;;;;;10.20;5.88;;;;;;;18.26;57.60;99054.34;5043586;28;20107;-75
2023/08/30 01:25:53;;;;;;;6.90;5.50;;;;;;;18.15;57.92;99057.22;5061658;28;20599;-75
2023/08/30 01:28:23;;;;;;;5.15;4.38;;;;;;;18.15;57.66;99043.91;5054495;28;20049;-77
2023/08/30 01:30:54;;;;;;;7.05;5.43;;;;;;;18.10;57.90;99039.88;5057572;28;20088;-78
2023/08/30 01:33:22;;;;;;;6.32;5.32;;;;;;;18.07;57.88;99040.19;5060394;28;20041;-79
2023/08/30 01:35:50;;;;;;;7.32;5.55;;;;;;;18.03;58.12;99036.16;5060295;28;20049;-78
2023/08/30 01:38:17;;;;;;;7.35;5.82;;;;;;;18.02;58.05;99038.97;5054873;28;20041;-76
2023/08/30 01:40:44;;;;;;;7.75;5.97;;;;;;;17.97;58.13;99044.72;5054885;28;20136;-77
2023/08/30 01:43:12;;;;;;;10.50;6.68;;;;;;;17.95;58.45;99036.06;5037166;28;20087;-77
2023/08/30 01:45:42;;;;;;;10.73;6.82;;;;;;;17.92;58.51;99036.38;5054640;28;20528;-76
2023/08/30 01:48:12;;;;;;;8.52;6.85;;;;;;;17.89;58.74;99039.34;5053823;28;20412;-76
2023/08/30 01:50:43;;;;;;;6.57;5.50;;;;;;;17.86;58.81;99037.81;5041999;28;20053;-76
2023/08/30 01:53:14;;;;;;;7.65;5.78;;;;;;;17.82;59.15;99039.97;5040348;28;20127;-76
2023/08/30 01:55:42;;;;;;;6.53;5.80;;;;;;;17.81;59.09;99048.94;5046421;28;20127;-78
2023/08/30 01:58:09;;;;;;;9.88;6.63;;;;;;;17.79;59.04;99047.44;5054408;28;20059;-76
2023/08/30 02:00:36;;;;;;;9.30;6.53;;;;;;;17.76;58.91;99037.88;5036863;28;20139;-80
2023/08/30 02:03:14;;;;;;;7.78;5.82;;;;;;;17.68;59.44;99040.50;5051465;28;20045;-76
2023/08/30 02:06:11;;;;;;;7.63;6.45;;;;;;;17.64;59.66;99034.63;5036958;28;20123;-75
2023/08/30 02:08:50;;;;;;;8.52;6.07;;;;;;;17.64;59.49;99039.13;5045335;28;20049;-78
2023/08/30 02:11:21;;;;;;;8.15;6.88;;;;;;;17.63;59.41;99037.44;5050878;28;20060;-75
2023/08/30 02:13:50;;;;;;;8.13;6.70;;;;;;;17.61;59.24;99044.75;5028453;28;20076;-75
2023/08/30 02:16:17;;;;;;;9.27;7.22;;;;;;;17.57;59.45;99038.91;5054111;28;20132;-76
2023/08/30 02:18:45;;;;;;;11.65;7.07;;;;;;;17.54;59.34;99048.00;5036539;28;20048;-75
2023/08/30 02:21:12;;;;;;;8.63;7.10;;;;;;;17.50;59.43;99041.31;5053909;28;20083;-79
2023/08/30 02:23:38;;;;;;;9.63;7.03;;;;;;;17.48;59.23;99045.94;5054455;28;20063;-76
2023/08/30 02:26:05;;;;;;;6.88;6.15;;;;;;;17.45;59.15;99041.75;5054143;28;20588;-75
2023/08/30 02:28:31;;;;;;;10.73;7.20;;;;;;;17.43;59.32;99045.56;5062259;28;20492;-75
2023/08/30 02:31:01;;;;;;;11.43;7.05;;;;;;;17.40;59.09;99044.03;5053741;28;20044;-76
2023/08/30 02:33:27;;;;;;;8.43;6.97;;;;;;;17.38;59.51;99045.19;5053674;28;20136;-76
2023/08/30 02:35:54;;;;;;;7.85;6.95;;;;;;;17.36;59.31;99042.66;5053898;28;20080;-76
2023/08/30 02:38:21;;;;;;;10.32;6.93;;;;;;;17.34;59.04;99044.63;5062169;28;20503;-78
2023/08/30 02:40:47;;;;;;;7.78;6.97;;;;;;;17.32;59.17;99039.44;5053820;28;20136;-76
2023/08/30 02:43:14;;;;;;;7.35;6.28;;;;;;;17.30;59.02;99036.13;5054059;28;20053;-76
2023/08/30 02:45:41;;;;;;;8.10;6.50;;;;;;;17.27;58.95;99033.75;5035529;28;20049;-75
2023/08/30 02:48:07;;;;;;;7.10;6.40;;;;;;;17.25;58.98;99027.75;5053615;28;20444;-79
2023/08/30 02:50:34;;;;;;;7.82;6.60;;;;;;;17.24;58.83;99030.56;5055205;28;20450;-77
2023/08/30 02:53:01;;;;;;;8.07;6.30;;;;;;;17.21;58.88;99028.19;5042148;28;20055;-75
2023/08/30 02:55:27;;;;;;;7.43;6.63;;;;;;;17.16;59.01;99029.47;5053594;28;20048;-76
2023/08/30 02:57:54;;;;;;;8.75;6.40;;;;;;;17.14;nan;99026.13;5035851;28;20081;-76
2023/08/30 03:00:20;;;;;;;9.27;6.97;;;;;;;17.13;58.93;99028.94;5053161;28;20382;-77
2023/08/30 03:02:47;;;;;;;9.55;7.13;;;;;;;17.09;58.97;99024.91;5052488;28;20396;-75
2023/08/30 03:05:13;;;;;;;7.57;6.30;;;;;;;17.07;58.97;99030.34;5053562;28;20051;-75
2023/08/30 03:07:40;;;;;;;9.57;6.97;;;;;;;17.06;59.22;99026.03;5055785;28;20526;-76
2023/08/30 03:10:07;;;;;;;9.38;6.63;;;;;;;17.03;59.26;99024.47;5058636;28;20128;-75
2023/08/30 03:12:33;;;;;;;7.93;6.63;;;;;;;17.02;59.16;99024.63;5054740;28;20051;-75
2023/08/30 03:15:00;;;;;;;7.95;6.68;;;;;;;17.00;59.02;99027.41;5059698;28;20075;-76
2023/08/30 03:17:27;;;;;;;7.60;6.82;;;;;;;16.99;59.05;99035.53;5053016;28;20063;-75
2023/08/30 03:19:56;;;;;;;9.82;6.93;;;;;;;16.96;59.46;99031.34;5053015;28;20041;-76
2023/08/30 03:22:22;;;;;;;9.50;6.97;;;;;;;16.94;59.53;99030.69;5053143;28;20053;-75
2023/08/30 03:24:49;;;;;;;8.57;7.18;;;;;;;16.92;59.39;99030.81;5052872;28;20056;-75
2023/08/30 03:27:16;;;;;;;8.35;7.47;;;;;;;16.90;59.80;99031.97;5052957;28;20045;-81
2023/08/30 03:29:43;;;;;;;8.75;7.68;;;;;;;16.89;60.22;99025.78;5052376;28;20056;-78
2023/08/30 03:32:09;;;;;;;9.43;8.40;;;;;;;16.90;59.78;99023.97;5058314;28;20076;-76
2023/08/30 03:34:35;;;;;;;9.75;7.88;;;;;;;16.89;60.26;99019.63;5054126;28;20053;-75
2023/08/30 03:37:02;;;;;;;9.82;7.53;;;;;;;16.90;60.33;99021.31;5034276;28;20131;-75
2023/08/30 03:39:29;;;;;;;9.05;7.60;;;;;;;16.91;60.74;99029.16;5034111;28;20084;-76
2023/08/30 03:41:55;;;;;;;9.13;7.55;;;;;;;16.92;60.63;99025.50;5051886;28;20076;-75
2023/08/30 03:44:22;;;;;;;8.77;7.75;;;;;;;16.93;60.78;99015.69;5051921;28;20152;-77
2023/08/30 03:46:49;;;;;;;9.80;8.15;;;;;;;16.94;60.74;99012.88;5060321;28;20130;-76
2023/08/30 03:49:15;;;;;;;9.80;8.63;;;;;;;16.96;61.09;99018.06;5043857;28;20049;-76
2023/08/30 03:51:42;;;;;;;10.70;8.85;;;;;;;16.97;61.07;99011.75;5033939;28;20148;-78
2023/08/30 03:54:13;;;;;;;11.70;8.65;;;;;;;16.99;60.71;99014.28;5051732;28;20405;-76
2023/08/30 03:56:39;;;;;;;11.05;9.45;;;;;;;17.00;60.59;99008.81;5051560;28;20044;-80
2023/08/30 03:59:06;;;;;;;11.18;9.30;;;;;;;17.02;61.13;99013.97;5050647;28;20135;-77
2023/08/30 04:01:32;;;;;;;9.57;8.27;;;;;;;17.01;61.07;99002.50;5059986;28;20082;-79
2023/08/30 04:03:59;;;;;;;11.13;8.23;;;;;;;17.04;60.92;99006.69;5051512;28;20123;-76
2023/08/30 04:06:25;;;;;;;9.82;8.82;;;;;;;17.04;61.02;99004.03;5051452;28;20501;-77
2023/08/30 04:08:52;;;;;;;10.43;9.00;;;;;;;17.05;61.39;99001.25;5043304;28;20132;-75
2023/08/30 04:11:18;;;;;;;9.25;8.32;;;;;;;17.08;61.12;99004.63;5051375;28;20055;-75
2023/08/30 04:13:45;;;;;;;10.98;9.13;;;;;;;17.09;61.43;98992.97;5051175;28;20057;-78
2023/08/30 04:16:11;;;;;;;9.90;8.82;;;;;;;17.12;61.46;98998.00;5025662;28;20132;-76
2023/08/30 04:18:38;;;;;;;10.68;9.52;;;;;;;17.14;61.73;98994.22;5043018;28;20049;-76
2023/08/30 04:21:06;;;;;;;10.25;8.95;;;;;;;17.16;61.93;98996.72;5057917;28;20045;-76
2023/08/30 04:23:32;;;;;;;10.50;9.50;;;;;;;17.19;61.73;98991.94;5051219;28;20127;-76
2023/08/30 04:25:59;;;;;;;10.80;9.32;;;;;;;17.23;61.84;98989.81;5051207;28;20049;-77
2023/08/30 04:28:26;;;;;;;11.75;9.05;;;;;;;17.26;61.64;98983.34;5049885;28;20098;-76
2023/08/30 04:30:54;;;;;;;10.55;9.10;;;;;;;17.28;61.73;98976.94;5050700;28;20509;-75
2023/08/30 04:33:21;;;;;;;11.98;8.82;;;;;;;17.30;61.61;98982.91;5051069;28;20520;-75
2023/08/30 04:35:52;;;;;;;13.65;9.85;;;;;;;17.31;61.74;98975.78;5050884;28;20128;-78
2023/08/30 04:38:20;;;;;;;12.20;10.30;;;;;;;17.34;61.52;98974.63;5050863;28;20533;-75
2023/08/30 04:40:47;;;;;;;11.57;9.85;;;;;;;17.36;61.31;98972.66;5024795;28;20045;-79
2023/08/30 04:43:14;;;;;;;13.15;9.55;;;;;;;17.36;61.38;98976.16;5033338;28;20129;-75
2023/08/30 04:45:40;;;;;;;15.52;10.50;;;;;;;17.37;61.31;98977.81;5051030;28;20055;-76
2023/08/30 04:48:07;;;;;;;13.32;9.93;;;;;;;17.36;61.45;98976.16;5033247;28;20084;-77
2023/08/30 04:50:34;;;;;;;11.32;9.70;;;;;;;17.37;61.36;98967.19;5050736;28;20489;-75
2023/08/30 04:53:01;;;;;;;12.05;10.00;;;;;;;17.36;61.62;98964.66;5050822;28;20141;-79
2023/08/30 04:55:30;;;;;;;15.27;10.43;;;;;;;17.34;61.66;98962.16;5050567;28;20044;-80
2023/08/30 04:57:56;;;;;;;12.18;10.40;;;;;;;17.36;61.33;98954.03;5042661;28;20390;-77
2023/08/30 05:00:23;;;;;;;13.85;10.43;;;;;;;17.36;61.39;98954.88;5050347;28;20417;-78
2023/08/30 05:02:50;;;;;;;12.45;11.05;;;;;;;17.34;61.18;98951.53;5032843;28;20081;-77
2023/08/30 05:05:17;;;;;;;13.25;10.63;;;;;;;17.34;61.06;98948.84;5050654;28;20053;-77
2023/08/30 05:07:43;;;;;;;12.95;10.77;;;;;;;17.33;61.27;98949.84;5050427;28;20079;-78
2023/08/30 05:10:10;;;;;;;15.98;11.10;;;;;;;17.31;61.43;98951.84;5050108;28;20053;-79
2023/08/30 05:12:36;;;;;;;11.73;10.40;;;;;;;17.29;61.41;98949.34;5050618;28;20087;-78
2023/08/30 05:15:06;;;;;;;15.45;10.35;;;;;;;17.27;61.35;98945.97;5050644;28;20040;-78
2023/08/30 05:17:33;;;;;;;14.98;10.43;;;;;;;17.26;61.38;98941.66;5032855;28;20045;-79
2023/08/30 05:19:59;;;;;;;15.15;10.35;;;;;;;17.25;61.40;98947.09;5042281;28;20041;-79
2023/08/30 05:22:26;;;;;;;12.52;10.38;;;;;;;17.23;61.25;98939.28;5050484;28;20501;-78
2023/08/30 05:24:52;;;;;;;14.10;10.43;;;;;;;17.21;61.50;98943.94;5053113;28;20059;-79
2023/08/30 05:27:19;;;;;;;16.45;10.95;;;;;;;17.18;61.52;98945.06;5056099;28;20051;-78
2023/08/30 05:29:45;;;;;;;10.98;9.57;;;;;;;17.16;61.49;98940.88;5051668;28;20090;-81
2023/08/30 05:32:12;;;;;;;11.60;10.20;;;;;;;17.12;61.28;98937.69;5057285;28;20045;-78
2023/08/30 05:34:38;;;;;;;11.77;10.25;;;;;;;17.09;61.23;98934.50;5050218;28;20128;-78
2023/08/30 05:37:05;;;;;;;13.68;10.27;;;;;;;17.06;61.43;98935.63;5046505;28;20085;-78
2023/08/30 05:39:31;;;;;;;11.15;9.95;;;;;;;17.03;61.62;98931.41;5054464;28;20044;-77
2023/08/30 05:41:58;;;;;;;12.48;9.68;;;;;;;17.00;61.64;98925.53;5050457;28;20045;-81
2023/08/30 05:44:25;;;;;;;12.90;9.75;;;;;;;16.99;61.84;98927.38;5050510;28;20110;-78
2023/08/30 05:46:51;;;;;;;13.25;10.13;;;;;;;16.98;61.90;98928.38;5050246;28;20045;-78
2023/08/30 05:49:18;;;;;;;12.88;10.27;;;;;;;16.98;61.85;98923.06;5056014;28;20040;-77
2023/08/30 05:51:44;;;;;;;11.05;9.93;;;;;;;16.99;62.33;98918.56;5052377;28;20119;-81
2023/08/30 05:54:11;;;;;;;12.93;9.48;;;;;;;17.00;62.24;98937.03;5050176;28;20103;-80
2023/08/30 05:56:37;;;;;;;12.38;9.85;;;;;;;17.01;62.23;98928.06;5049981;28;20060;-78
2023/08/30 05:59:04;;;;;;;13.05;10.70;;;;;;;17.02;62.26;98927.09;5050078;28;20045;-79
2023/08/30 06:01:31;;;;;;;13.48;10.30;;;;;;;17.03;62.45;98925.25;5048796;28;20132;-78
2023/08/30 06:03:57;;;;;;;11.73;10.05;;;;;;;17.06;62.28;98923.19;5032183;28;20053;-82
2023/08/30 06:06:24;;;;;;;12.10;10.32;;;;;;;17.08;62.28;98928.31;5050329;28;20049;-78
2023/08/30 06:08:50;;;;;;;11.45;9.68;;;;;;;17.12;62.42;98926.22;5050122;28;20053;-79
2023/08/30 06:11:17;;;;;;;11.65;9.82;;;;;;;17.14;62.58;98926.88;5050188;28;20052;-77
2023/08/30 06:13:44;;;;;;;11.57;10.00;;;;;;;17.16;62.63;98916.97;5050209;28;20126;-77
2023/08/30 06:16:10;;;;;;;10.82;9.45;;;;;;;17.21;62.52;98911.16;5049739;28;20560;-79
2023/08/30 06:18:37;;;;;;;10.38;8.65;;;;;;;17.24;62.54;98916.19;5049806;28;20049;-79
2023/08/30 06:21:04;;;;;;;11.02;9.90;;;;;;;17.26;62.32;98912.38;5059134;28;20477;-78
2023/08/30 06:23:33;;;;;;;11.23;9.07;;;;;;;17.28;62.36;98915.75;5035871;28;20055;-80
2023/08/30 06:26:00;;;;;;;11.43;10.20;;;;;;;17.31;61.85;98911.94;5053373;28;20049;-77
2023/08/30 06:28:26;;;;;;;11.77;9.75;;;;;;;17.31;61.57;98910.09;5053357;28;20572;-78
2023/08/30 06:30:53;;;;;;;12.85;10.70;;;;;;;17.31;61.85;98902.13;5052988;28;20511;-80
2023/08/30 06:33:20;;;;;;;13.48;10.13;;;;;;;17.31;61.45;98896.81;5224221;22;20048;-83
2023/08/30 06:35:53;;;;;;;11.68;10.13;;;;;;;17.27;61.90;98890.13;5053616;28;20129;-82
2023/08/30 06:38:20;;;;;;;11.07;9.63;;;;;;;17.28;61.67;98888.31;5035821;28;20044;-83
2023/08/30 06:40:47;;;;;;;15.90;10.27;;;;;;;17.27;61.38;98894.63;5035427;28;20102;-84
2023/08/30 06:43:13;;;;;;;11.88;10.27;;;;;;;17.24;61.56;98890.44;5054263;28;20124;-83
2023/08/30 06:45:42;;;;;;;12.05;9.23;;;;;;;17.23;61.83;98894.06;5053558;28;20099;-83
2023/08/30 06:48:08;;;;;;;13.07;9.35;;;;;;;17.23;61.69;98895.91;5035684;28;20045;-83
2023/08/30 06:50:35;;;;;;;11.23;9.25;;;;;;;17.22;61.71;98888.91;5053468;28;20518;-83
2023/08/30 06:53:03;;;;;;;11.60;9.70;;;;;;;17.22;61.56;98895.06;5053420;28;20059;-83
2023/08/30 06:55:31;;;;;;;11.73;9.65;;;;;;;17.22;61.73;98894.22;5035647;28;20124;-83
2023/08/30 06:57:59;;;;;;;12.00;9.80;;;;;;;17.22;61.64;98895.06;5055777;28;20060;-84
2023/08/30 07:00:25;;;;;;;12.63;10.05;;;;;;;17.22;61.68;98897.72;5052855;28;20127;-83
2023/08/30 07:02:51;;;;;;;11.88;9.38;;;;;;;17.24;62.09;98895.75;5053413;28;20049;-83
2023/08/30 07:05:18;;;;;;;13.00;9.90;;;;;;;17.25;61.63;98900.09;5053382;28;20048;-83
2023/08/30 07:07:44;;;;;;;13.38;10.60;;;;;;;17.25;61.37;98897.44;5052960;28;20044;-83
2023/08/30 07:10:11;;;;;;;11.00;9.50;;;;;;;17.28;61.55;98897.13;5034690;28;20049;-83
2023/08/30 07:12:38;;;;;;;13.82;9.73;;;;;;;17.28;61.99;98891.81;5052708;28;20045;-83
2023/08/30 07:15:05;;;;;;;12.35;10.27;;;;;;;17.31;61.74;98896.81;5052443;28;20052;-83
2023/08/30 07:17:31;;;;;;;12.60;9.95;;;;;;;17.34;62.13;98895.66;5052563;28;20052;-83
2023/08/30 07:20:16;;;;;;;13.05;9.50;;;;;;;17.37;61.74;98894.50;5052487;28;20045;-83
2023/08/30 07:22:42;;;;;;;10.93;9.70;;;;;;;17.43;61.88;98899.25;5052575;28;20561;-83
2023/08/30 07:25:10;;;;;;;12.18;9.02;;;;;;;17.49;61.86;98900.47;5034445;28;20068;-83
2023/08/30 07:27:37;;;;;;;12.88;9.65;;;;;;;17.54;61.93;98893.66;5052409;28;20072;-83
2023/08/30 07:30:04;;;;;;;10.75;9.57;;;;;;;17.62;62.03;98894.72;5052355;28;20419;-83
2023/08/30 07:32:30;;;;;;;11.93;10.23;;;;;;;17.70;62.14;98892.97;5052188;28;20067;-83
2023/08/30 07:34:57;;;;;;;10.68;9.57;;;;;;;17.79;61.53;98891.19;5034462;28;20103;-83
2023/08/30 07:37:25;;;;;;;10.75;9.23;;;;;;;17.86;61.44;98886.06;5034133;28;20052;-83
2023/08/30 07:39:52;;;;;;;13.30;10.13;;;;;;;17.93;61.55;98880.97;5051616;28;20085;-83
2023/08/30 07:42:19;;;;;;;11.90;10.00;;;;;;;18.01;61.42;98880.19;5034587;28;20076;-83
2023/08/30 07:44:46;;;;;;;14.25;9.40;;;;;;;18.09;61.73;98881.09;5052063;28;20049;-83
2023/08/30 07:47:12;;;;;;;11.95;9.43;;;;;;;18.19;61.52;98888.13;5052070;28;20071;-83
2023/08/30 07:49:38;;;;;;;10.30;8.52;;;;;;;18.30;61.46;98884.34;5051836;28;20415;-83
2023/08/30 07:52:05;;;;;;;11.13;9.10;;;;;;;18.40;61.66;98882.41;5051817;28;20064;-83
2023/08/30 07:54:32;;;;;;;12.23;9.40;;;;;;;18.51;61.19;98883.97;5052105;28;20041;-83
2023/08/30 07:56:58;;;;;;;11.43;9.18;;;;;;;18.61;61.44;98878.47;5051877;28;20060;-83
2023/08/30 07:59:25;;;;;;;14.43;10.18;;;;;;;18.70;61.21;98885.53;5051774;28;20051;-83
2023/08/30 08:01:51;;;;;;;12.63;9.15;;;;;;;18.81;61.41;98884.38;5051598;28;20059;-83
2023/08/30 08:04:18;;;;;;;10.32;8.80;;;;;;;18.91;60.92;98880.75;5051669;28;20069;-83
2023/08/30 08:06:44;;;;;;;10.57;9.43;;;;;;;19.00;60.67;98882.41;5051877;28;20052;-83
2023/08/30 08:09:22;;;;;;;11.25;9.05;;;;;;;19.12;60.72;98886.47;5051627;28;20048;-84
2023/08/30 08:11:49;;;;;;;11.65;8.80;;;;;;;19.21;60.99;98876.63;5051730;28;20503;-83
2023/08/30 08:14:16;;;;;;;14.07;9.38;;;;;;;19.32;60.73;98872.00;5051449;28;20091;-83
2023/08/30 08:16:42;;;;;;;11.30;8.93;;;;;;;19.42;60.51;98877.13;5051249;28;20076;-83
2023/08/30 08:19:09;;;;;;;11.02;8.75;;;;;;;19.52;60.87;98875.97;5033528;28;20574;-84
2023/08/30 08:21:35;;;;;;;12.45;9.38;;;;;;;19.64;60.46;98864.97;5051363;28;20048;-83
2023/08/30 08:24:02;;;;;;;11.90;9.20;;;;;;;19.77;60.76;98864.41;5033913;28;20053;-83
2023/08/30 08:26:28;;;;;;;11.40;9.73;;;;;;;19.88;60.25;98866.75;5051367;28;20037;-83
2023/08/30 08:28:55;;;;;;;12.25;10.32;;;;;;;20.00;60.32;98863.75;5050882;28;20502;-84
2023/08/30 08:31:22;;;;;;;12.88;10.15;;;;;;;20.11;60.07;98858.03;5051652;28;20136;-83
2023/08/30 08:34:06;;;;;;;12.93;10.38;;;;;;;20.17;59.65;98853.84;5032976;28;20507;-84
2023/08/30 08:36:33;;;;;;;14.75;11.00;;;;;;;20.33;59.82;98858.28;5050690;28;20113;-84
2023/08/30 08:38:59;;;;;;;21.50;13.10;;;;;;;20.43;59.37;98858.09;5050906;28;20055;-83
2023/08/30 08:41:37;;;;;;;15.20;12.50;;;;;;;20.49;58.88;98861.91;5050855;28;20049;-84
2023/08/30 08:44:05;;;;;;;17.23;12.27;;;;;;;20.57;59.17;98861.88;5050432;28;20060;-83
2023/08/30 08:46:34;;;;;;;13.95;12.45;;;;;;;20.65;59.09;98866.34;5050645;28;20040;-84
2023/08/30 08:49:11;;;;;;;15.07;12.40;;;;;;;20.69;57.89;98862.31;5050708;28;20572;-84
2023/08/30 08:51:38;;;;;;;18.02;13.13;;;;;;;20.77;58.24;98864.09;5044629;28;20424;-84
2023/08/30 08:54:05;;;;;;;17.77;13.38;;;;;;;20.77;58.00;98875.63;5048901;28;20049;-84
2023/08/30 08:56:33;;;;;;;17.88;13.15;;;;;;;20.76;57.84;98857.94;5032810;28;20331;-84
2023/08/30 08:59:00;;;;;;;18.70;13.05;;;;;;;20.73;57.73;98860.09;5032641;28;20056;-84
2023/08/30 09:01:27;;;;;;;18.77;14.10;;;;;;;20.72;57.55;98855.78;5032855;28;20052;-83
2023/08/30 09:04:11;;;;;;;18.05;13.35;;;;;;;20.66;57.23;98862.66;5053507;28;20087;-84
2023/08/30 09:06:43;;;;;;;18.23;13.68;;;;;;;20.63;57.24;98858.47;5050668;28;20071;-84
2023/08/30 09:09:10;;;;;;;17.02;13.43;;;;;;;20.57;57.11;98856.53;5050397;28;20056;-83
2023/08/30 09:11:37;;;;;;;19.73;14.07;;;;;;;20.50;57.26;98855.56;5050284;28;20048;-84
2023/08/30 09:14:16;;;;;;;20.25;14.00;;;;;;;20.43;57.56;98858.09;5050902;28;20086;-84
2023/08/30 09:16:43;;;;;;;19.33;14.60;;;;;;;20.36;57.38;98863.28;5050161;28;20458;-83
2023/08/30 09:19:10;;;;;;;20.05;14.27;;;;;;;20.29;57.60;98854.28;5050343;28;20056;-84
2023/08/30 09:21:37;;;;;;;18.80;13.52;;;;;;;20.25;57.60;98844.97;5032668;28;20045;-84
2023/08/30 09:24:06;;;;;;;19.35;13.85;;;;;;;20.21;57.93;98844.47;5050266;28;20094;-84
2023/08/30 09:26:36;;;;;;;18.00;13.15;;;;;;;20.20;58.18;98847.31;5050742;28;20103;-84
2023/08/30 09:29:04;;;;;;;21.70;15.65;;;;;;;20.21;57.94;98843.63;5050464;28;20369;-83
2023/08/30 09:31:34;;;;;;;17.38;13.85;;;;;;;20.20;57.73;98847.31;5050263;28;20128;-84
2023/08/30 09:34:01;;;;;;;16.98;13.63;;;;;;;20.20;58.00;98848.16;5032251;28;20569;-84
2023/08/30 09:36:37;;;;;;;22.95;14.45;;;;;;;20.18;58.08;98851.00;5050067;28;20120;-83
2023/08/30 09:39:09;;;;;;;22.58;13.88;;;;;;;20.22;58.21;98845.31;5050506;28;20049;-84
2023/08/30 09:41:36;;;;;;;16.08;13.90;;;;;;;20.26;58.62;98846.66;5032346;28;20048;-83
2023/08/30 09:44:09;;;;;;;18.20;14.57;;;;;;;20.27;58.28;98838.47;5050672;28;20060;-84
2023/08/30 09:46:54;;;;;;;17.63;13.80;;;;;;;20.30;58.08;98835.41;5033317;28;20045;-84
2023/08/30 09:49:22;;;;;;;18.20;14.55;;;;;;;20.38;58.32;98828.38;5024320;28;20087;-84
2023/08/30 09:51:51;;;;;;;16.08;13.77;;;;;;;20.41;58.24;98826.19;5032412;28;20062;-84
2023/08/30 09:54:20;;;;;;;20.08;15.25;;;;;;;20.47;58.27;98823.81;5050169;28;20487;-84
2023/08/30 09:56:53;;;;;;;22.95;14.90;;;;;;;20.51;58.48;98819.78;5052552;28;20420;-83
2023/08/30 09:59:20;;;;;;;20.20;15.00;;;;;;;20.55;58.33;98818.41;5053809;28;20073;-84
2023/08/30 10:01:52;;;;;;;20.77;14.13;;;;;;;20.59;58.12;98819.75;5035941;28;20049;-84
2023/08/30 10:04:19;;;;;;;18.65;14.35;;;;;;;20.64;58.00;98817.38;5054041;28;20056;-84
2023/08/30 10:06:47;;;;;;;21.05;14.30;;;;;;;20.69;58.18;98800.81;5036504;28;20049;-84
2023/08/30 10:09:15;;;;;;;17.77;14.45;;;;;;;20.75;58.11;98804.63;5053547;28;20049;-84
2023/08/30 10:12:03;;;;;;;18.00;13.93;;;;;;;20.83;58.35;98810.72;5053577;28;20049;-84
2023/08/30 10:14:29;;;;;;;17.88;14.05;;;;;;;20.92;58.56;98802.69;5053697;28;20076;-84
2023/08/30 10:17:03;;;;;;;17.55;13.95;;;;;;;21.03;58.07;98814.81;5035443;28;20052;-84
2023/08/30 10:19:31;;;;;;;18.33;14.10;;;;;;;21.17;57.81;98811.38;5053672;28;20106;-84
2023/08/30 10:22:03;;;;;;;19.17;13.57;;;;;;;21.27;57.13;98807.59;5053299;28;20053;-84
2023/08/30 10:24:37;;;;;;;17.20;14.07;;;;;;;21.34;56.71;98806.69;5053415;28;20406;-84
2023/08/30 10:27:26;;;;;;;17.77;13.68;;;;;;;21.44;56.74;98797.56;5049896;28;20042;-84
2023/08/30 10:29:53;;;;;;;22.10;14.30;;;;;;;21.47;56.14;98806.06;5048620;28;20426;-84
2023/08/30 10:32:21;;;;;;;18.45;14.23;;;;;;;21.45;56.42;98794.69;5035418;28;20511;-84
2023/08/30 10:34:49;;;;;;;18.63;12.98;;;;;;;21.43;56.18;98786.03;5035402;28;20140;-84
2023/08/30 10:37:21;;;;;;;19.52;13.77;;;;;;;21.40;55.85;98780.19;5053099;28;20086;-84
2023/08/30 10:39:48;;;;;;;15.30;12.13;;;;;;;21.35;55.85;98783.44;5035381;28;20053;-84
2023/08/30 10:42:17;;;;;;;16.67;12.77;;;;;;;21.29;55.77;98787.66;5053684;28;20052;-84
2023/08/30 10:44:57;;;;;;;15.93;13.27;;;;;;;21.21;55.42;98790.41;5053030;28;20045;-84
2023/08/30 10:47:39;;;;;;;16.60;12.27;;;;;;;21.18;55.70;98780.06;5037580;28;20099;-83
2023/08/30 10:50:11;;;;;;;18.15;12.68;;;;;;;21.11;55.71;98797.88;5052973;28;20148;-83
2023/08/30 10:52:38;;;;;;;15.45;11.95;;;;;;;21.06;55.91;98793.03;5035434;28;20048;-83
2023/08/30 10:55:31;;;;;;;15.30;13.27;;;;;;;20.93;56.10;98785.63;5056746;28;20080;-83
2023/08/30 10:58:02;;;;;;;16.52;12.07;;;;;;;20.92;56.24;98781.28;5048838;28;20048;-83
2023/08/30 11:00:30;;;;;;;15.38;13.00;;;;;;;20.87;56.48;98781.84;5053074;28;20053;-83
2023/08/30 11:02:57;;;;;;;16.15;12.73;;;;;;;20.82;56.60;98781.50;5053259;28;20049;-83
2023/08/30 11:05:26;;;;;;;18.77;14.10;;;;;;;20.75;56.62;98775.19;5052959;28;20059;-83
2023/08/30 11:07:53;;;;;;;19.52;13.70;;;;;;;20.70;57.07;98767.69;5052448;28;20530;-83
2023/08/30 11:10:20;;;;;;;16.45;13.38;;;;;;;20.64;57.01;98761.22;5034680;28;20507;-83
2023/08/30 11:12:49;;;;;;;16.80;13.30;;;;;;;20.59;56.98;98763.59;5053159;28;20080;-83
2023/08/30 11:15:17;;;;;;;16.13;13.55;;;;;;;20.55;57.27;98754.25;5035107;28;20084;-83
2023/08/30 11:17:44;;;;;;;16.67;12.88;;;;;;;20.52;57.10;98757.31;5052812;28;20512;-83
2023/08/30 11:20:19;;;;;;;15.77;13.73;;;;;;;20.46;57.36;98748.16;5052466;28;20049;-83
2023/08/30 11:22:48;;;;;;;15.68;13.55;;;;;;;20.41;58.21;98745.19;5052502;28;20124;-83
2023/08/30 11:25:16;;;;;;;17.83;12.73;;;;;;;20.37;58.02;98742.00;5035068;28;20052;-83
2023/08/30 11:27:43;;;;;;;15.38;12.35;;;;;;;20.35;58.22;98752.06;5044461;28;20057;-83
2023/08/30 11:30:11;;;;;;;16.40;13.10;;;;;;;20.31;58.18;98759.56;5043878;28;20125;-82